createdAt,value
2023-10-28T00:01:37.194Z,15.05
2023-10-28T00:04:03.694Z,13.10
2023-10-28T00:06:30.621Z,12.05
2023-10-28T00:08:56.957Z,14.27
2023-10-28T00:11:23.944Z,15.77
2023-10-28T00:13:51.163Z,14.80
2023-10-28T00:16:17.624Z,10.77
2023-10-28T00:18:44.192Z,13.10
2023-10-28T00:21:12.787Z,15.65
2023-10-28T00:23:39.158Z,17.27
2023-10-28T00:26:06.098Z,28.92
2023-10-28T00:28:35.812Z,16.67
2023-10-28T00:31:03.404Z,25.17
2023-10-28T00:33:30.204Z,18.98
2023-10-28T00:35:56.559Z,19.20
2023-10-28T00:38:23.312Z,14.55
2023-10-28T00:40:49.932Z,15.65
2023-10-28T00:43:16.284Z,18.50
2023-10-28T00:45:43.268Z,21.50
2023-10-28T00:48:09.577Z,16.65
2023-10-28T00:50:36.046Z,18.98
2023-10-28T00:53:05.563Z,15.05
2023-10-28T00:55:32.462Z,16.63
2023-10-28T00:57:59.118Z,22.15
2023-10-28T01:00:25.418Z,23.60
2023-10-28T01:02:53.477Z,22.58
2023-10-28T01:05:20.342Z,20.05
2023-10-28T01:07:47.703Z,17.48
2023-10-28T01:10:24.597Z,13.25
2023-10-28T01:12:50.868Z,20.73
2023-10-28T01:15:17.137Z,14.00
2023-10-28T01:17:43.954Z,13.85
2023-10-28T01:20:11.811Z,15.82
2023-10-28T01:22:38.366Z,12.48
2023-10-28T01:25:04.866Z,17.27
2023-10-28T01:27:31.127Z,11.43
2023-10-28T01:29:57.447Z,18.80
2023-10-28T01:32:23.788Z,14.23
2023-10-28T01:34:51.569Z,13.75
2023-10-28T01:37:18.379Z,19.25
2023-10-28T01:39:49.603Z,14.98
2023-10-28T01:42:16.152Z,15.70
2023-10-28T01:44:42.620Z,25.27
2023-10-28T01:47:11.885Z,19.42
2023-10-28T01:49:38.828Z,22.88
2023-10-28T01:52:05.611Z,18.70
2023-10-28T01:54:34.608Z,12.93
2023-10-28T01:57:01.677Z,18.33
2023-10-28T01:59:28.099Z,15.15
2023-10-28T02:01:54.958Z,12.25
2023-10-28T02:04:21.257Z,19.02
2023-10-28T02:06:50.522Z,15.90
2023-10-28T02:09:18.808Z,16.55
2023-10-28T02:11:45.169Z,26.52
2023-10-28T02:14:12.944Z,20.88
2023-10-28T02:16:39.428Z,10.20
2023-10-28T02:19:06.191Z,19.30
2023-10-28T02:21:32.955Z,18.55
2023-10-28T02:24:01.157Z,17.70
2023-10-28T02:26:27.469Z,17.95
2023-10-28T02:28:53.812Z,23.83
2023-10-28T02:31:20.148Z,23.40
2023-10-28T02:33:46.445Z,21.60
2023-10-28T02:36:13.720Z,19.83
2023-10-28T02:38:41.278Z,15.70
2023-10-28T02:41:08.053Z,21.92
2023-10-28T02:43:36.295Z,16.73
2023-10-28T02:46:04.163Z,24.60
2023-10-28T02:48:31.002Z,22.08
2023-10-28T02:51:02.788Z,17.00
2023-10-28T02:53:29.479Z,21.13
2023-10-28T02:55:55.879Z,15.63
2023-10-28T02:58:22.257Z,24.27
2023-10-28T03:00:48.584Z,19.38
2023-10-28T03:03:14.966Z,19.75
2023-10-28T03:05:41.364Z,19.48
2023-10-28T03:08:07.731Z,29.33
2023-10-28T03:10:34.089Z,14.93
2023-10-28T03:13:00.417Z,17.13
2023-10-28T03:15:26.837Z,17.52
2023-10-28T03:17:53.302Z,20.67
2023-10-28T03:20:21.808Z,15.98
2023-10-28T03:22:48.358Z,21.10
2023-10-28T03:25:14.982Z,19.63
2023-10-28T03:27:41.329Z,15.48
2023-10-28T03:30:07.912Z,13.48
2023-10-28T03:32:34.214Z,16.95
2023-10-28T03:35:00.525Z,20.45
2023-10-28T03:37:27.933Z,12.27
2023-10-28T03:39:54.264Z,17.30
2023-10-28T03:42:20.624Z,14.38
2023-10-28T03:44:47.945Z,14.40
2023-10-28T03:47:14.422Z,13.55
2023-10-28T03:49:40.800Z,16.65
2023-10-28T03:52:07.851Z,12.20
2023-10-28T03:54:34.176Z,13.00
2023-10-28T03:57:00.483Z,12.05
2023-10-28T03:59:26.742Z,10.30
2023-10-28T04:01:53.147Z,16.98
2023-10-28T04:04:19.621Z,15.10
2023-10-28T04:06:46.381Z,15.90
2023-10-28T04:09:15.255Z,15.02
2023-10-28T04:11:41.890Z,13.07
2023-10-28T04:14:08.818Z,10.50
2023-10-28T04:16:35.157Z,11.48
2023-10-28T04:19:01.433Z,8.73
2023-10-28T04:21:28.788Z,7.55
2023-10-28T04:23:55.068Z,10.82
2023-10-28T04:26:21.330Z,6.63
2023-10-28T04:28:47.702Z,13.30
2023-10-28T04:31:16.306Z,10.80
2023-10-28T04:33:42.722Z,7.75
2023-10-28T04:36:10.912Z,9.02
2023-10-28T04:38:40.264Z,12.73
2023-10-28T04:41:09.417Z,9.77
2023-10-28T04:43:36.118Z,10.43
2023-10-28T04:46:02.422Z,10.85
2023-10-28T04:48:30.002Z,8.73
2023-10-28T04:50:56.433Z,10.82
2023-10-28T04:53:25.420Z,8.98
2023-10-28T04:55:51.700Z,10.63
2023-10-28T04:58:18.850Z,6.82
2023-10-28T05:00:46.242Z,6.18
2023-10-28T05:03:13.739Z,8.95
2023-10-28T05:05:40.273Z,10.85
2023-10-28T05:08:06.645Z,10.45
2023-10-28T05:10:33.355Z,6.75
2023-10-28T05:13:00.641Z,9.23
2023-10-28T05:15:26.986Z,7.63
2023-10-28T05:17:53.374Z,10.18
2023-10-28T05:20:19.821Z,11.07
2023-10-28T05:22:46.790Z,6.88
2023-10-28T05:25:13.891Z,7.07
2023-10-28T05:27:40.885Z,4.28
2023-10-28T05:30:07.503Z,7.32
2023-10-28T05:32:33.940Z,6.00
2023-10-28T05:35:01.044Z,3.78
2023-10-28T05:37:28.436Z,5.57
2023-10-28T05:39:54.800Z,9.18
2023-10-28T05:42:21.156Z,8.20
2023-10-28T05:44:47.854Z,10.60
2023-10-28T05:47:14.205Z,7.70
2023-10-28T05:49:40.512Z,8.73
2023-10-28T05:52:06.851Z,5.50
2023-10-28T05:54:34.008Z,7.72
2023-10-28T05:57:00.350Z,8.32
2023-10-28T05:59:26.645Z,7.63
2023-10-28T06:01:53.083Z,10.80
2023-10-28T06:04:22.291Z,7.97
2023-10-28T06:06:49.409Z,11.57
2023-10-28T06:09:16.389Z,7.28
2023-10-28T06:11:43.048Z,12.45
2023-10-28T06:14:09.946Z,7.78
2023-10-28T06:16:36.906Z,6.35
2023-10-28T06:19:03.210Z,9.23
2023-10-28T06:21:29.545Z,8.63
2023-10-28T06:23:55.875Z,9.85
2023-10-28T06:26:22.291Z,9.20
2023-10-28T06:28:48.748Z,12.50
2023-10-28T06:31:15.552Z,6.32
2023-10-28T06:33:42.000Z,10.43
2023-10-28T06:36:09.860Z,11.07
2023-10-28T06:38:36.227Z,5.25
2023-10-28T06:41:02.705Z,7.05
2023-10-28T06:43:29.032Z,10.85
2023-10-28T06:45:55.336Z,10.10
2023-10-28T06:48:21.645Z,6.65
2023-10-28T06:50:49.454Z,7.35
2023-10-28T06:53:15.943Z,10.65
2023-10-28T06:55:42.384Z,12.02
2023-10-28T06:58:08.697Z,10.85
2023-10-28T07:00:34.981Z,13.95
2023-10-28T07:03:01.576Z,5.07
2023-10-28T07:05:28.161Z,7.15
2023-10-28T07:07:57.200Z,5.82
2023-10-28T07:10:23.637Z,9.30
2023-10-28T07:12:50.992Z,10.00
2023-10-28T07:15:18.027Z,9.43
2023-10-28T07:17:44.741Z,10.10
2023-10-28T07:20:11.360Z,7.40
2023-10-28T07:22:37.833Z,8.00
2023-10-28T07:25:05.229Z,8.48
2023-10-28T07:27:32.987Z,9.27
2023-10-28T07:30:00.456Z,9.25
2023-10-28T07:32:26.953Z,5.70
2023-10-28T07:34:53.336Z,8.65
2023-10-28T07:37:19.776Z,7.13
2023-10-28T07:39:46.361Z,7.63
2023-10-28T07:42:12.878Z,5.75
2023-10-28T07:44:40.716Z,14.02
2023-10-28T07:47:07.820Z,7.13
2023-10-28T07:49:34.290Z,10.00
2023-10-28T07:52:00.649Z,10.23
2023-10-28T07:54:26.949Z,7.00
2023-10-28T07:56:53.274Z,5.25
2023-10-28T07:59:20.558Z,4.93
2023-10-28T08:01:46.922Z,9.85
2023-10-28T08:04:14.971Z,9.27
2023-10-28T08:06:44.222Z,10.15
2023-10-28T08:09:10.780Z,13.30
2023-10-28T08:11:37.111Z,9.63
2023-10-28T08:14:04.776Z,9.00
2023-10-28T08:16:31.481Z,6.38
2023-10-28T08:18:59.483Z,4.55
2023-10-28T08:21:26.236Z,8.65
2023-10-28T08:23:52.616Z,11.50
2023-10-28T08:26:19.676Z,14.48
2023-10-28T08:28:47.974Z,10.07
2023-10-28T08:31:14.325Z,15.55
2023-10-28T08:33:43.371Z,12.18
2023-10-28T08:36:10.687Z,10.85
2023-10-28T08:38:38.108Z,10.85
2023-10-28T08:41:05.085Z,7.57
2023-10-28T08:43:37.906Z,14.23
2023-10-28T08:46:05.726Z,8.32
2023-10-28T08:48:35.343Z,11.05
2023-10-28T08:51:03.283Z,10.55
2023-10-28T08:53:30.922Z,9.80
2023-10-28T08:55:58.094Z,10.32
2023-10-28T08:58:24.587Z,11.02
2023-10-28T09:00:58.150Z,6.90
2023-10-28T09:03:26.354Z,7.93
2023-10-28T09:05:56.036Z,19.25
2023-10-28T09:08:22.618Z,13.10
2023-10-28T09:10:49.072Z,13.05
2023-10-28T09:13:15.924Z,13.50
2023-10-28T09:15:42.721Z,8.80
2023-10-28T09:18:11.793Z,12.82
2023-10-28T09:20:42.516Z,12.10
2023-10-28T09:23:08.857Z,10.52
2023-10-28T09:25:36.890Z,12.20
2023-10-28T09:28:09.180Z,13.85
2023-10-28T09:30:45.488Z,15.93
2023-10-28T09:33:12.270Z,11.20
2023-10-28T09:35:40.327Z,7.18
2023-10-28T09:38:07.333Z,14.80
2023-10-28T09:40:34.992Z,10.88
2023-10-28T09:43:04.353Z,13.80
2023-10-28T09:45:31.778Z,6.13
2023-10-28T09:47:59.246Z,20.05
2023-10-28T09:50:29.255Z,24.23
2023-10-28T09:52:57.518Z,10.40
2023-10-28T09:55:25.511Z,13.93
2023-10-28T09:58:01.342Z,9.43
2023-10-28T10:00:28.658Z,13.07
2023-10-28T10:03:13.481Z,11.60
2023-10-28T10:05:46.160Z,10.00
2023-10-28T10:08:19.554Z,7.68
2023-10-28T10:10:49.144Z,11.68
2023-10-28T10:13:18.208Z,18.98
2023-10-28T10:15:49.951Z,12.65
2023-10-28T10:18:22.617Z,5.53
2023-10-28T10:20:48.986Z,8.55
2023-10-28T10:23:15.522Z,13.55
2023-10-28T10:25:42.666Z,9.98
2023-10-28T10:28:16.327Z,12.30
2023-10-28T10:30:45.082Z,9.77
2023-10-28T10:33:12.345Z,9.75
2023-10-28T10:35:39.301Z,9.18
2023-10-28T10:38:06.668Z,6.70
2023-10-28T10:40:33.983Z,13.35
2023-10-28T10:43:06.826Z,11.18
2023-10-28T10:45:33.529Z,5.50
2023-10-28T10:47:59.925Z,10.70
2023-10-28T10:50:26.925Z,9.23
2023-10-28T10:52:53.311Z,12.27
2023-10-28T10:55:25.668Z,11.68
2023-10-28T10:57:52.377Z,8.02
2023-10-28T11:00:19.921Z,11.02
2023-10-28T11:02:47.070Z,4.93
2023-10-28T11:05:13.683Z,6.95
2023-10-28T11:07:42.257Z,8.75
2023-10-28T11:10:09.400Z,6.25
2023-10-28T11:12:36.168Z,7.95
2023-10-28T11:15:04.145Z,9.63
2023-10-28T11:17:30.716Z,13.05
2023-10-28T11:19:57.879Z,13.77
2023-10-28T11:22:24.621Z,8.43
2023-10-28T11:24:57.413Z,11.43
2023-10-28T11:27:27.362Z,5.50
2023-10-28T11:29:59.416Z,6.78
2023-10-28T11:32:27.291Z,9.98
2023-10-28T11:34:54.348Z,8.90
2023-10-28T11:37:20.874Z,7.35
2023-10-28T11:39:49.116Z,9.32
2023-10-28T11:42:16.871Z,8.02
2023-10-28T11:44:48.154Z,9.95
2023-10-28T11:47:15.136Z,9.80
2023-10-28T11:49:41.471Z,10.82
2023-10-28T11:52:08.070Z,6.85
2023-10-28T11:54:37.342Z,11.07
2023-10-28T11:57:03.793Z,8.50
2023-10-28T11:59:30.183Z,8.65
2023-10-28T12:01:56.474Z,8.65
2023-10-28T12:04:22.789Z,8.07
2023-10-28T12:06:49.114Z,9.68
2023-10-28T12:09:15.573Z,15.90
2023-10-28T12:11:42.174Z,12.70
2023-10-28T12:14:09.213Z,8.13
2023-10-28T12:16:39.221Z,12.23
2023-10-28T12:19:06.767Z,10.38
2023-10-28T12:21:35.083Z,13.63
2023-10-28T12:24:04.181Z,9.90
2023-10-28T12:26:30.563Z,10.20
2023-10-28T12:28:57.841Z,14.98
2023-10-28T12:31:24.622Z,9.82
2023-10-28T12:33:51.284Z,23.27
2023-10-28T12:36:18.194Z,17.20
2023-10-28T12:38:47.528Z,11.98
2023-10-28T12:41:13.997Z,11.02
2023-10-28T12:43:40.846Z,17.23
2023-10-28T12:46:07.474Z,12.55
2023-10-28T12:48:34.417Z,14.10
2023-10-28T12:51:03.525Z,19.05
2023-10-28T12:53:30.510Z,13.15
2023-10-28T12:55:57.884Z,13.73
2023-10-28T12:58:24.621Z,9.75
2023-10-28T13:00:50.924Z,9.77
2023-10-28T13:03:17.431Z,12.68
2023-10-28T13:05:43.762Z,24.90
2023-10-28T13:08:10.685Z,13.60
2023-10-28T13:10:37.874Z,12.77
2023-10-28T13:13:04.635Z,11.63
2023-10-28T13:15:30.989Z,18.00
2023-10-28T13:18:00.020Z,12.50
2023-10-28T13:20:26.598Z,9.95
2023-10-28T13:22:53.238Z,9.60
2023-10-28T13:25:20.131Z,15.45
2023-10-28T13:27:46.404Z,14.80
2023-10-28T13:30:13.275Z,13.35
2023-10-28T13:32:52.140Z,13.82
2023-10-28T13:35:22.762Z,11.23
2023-10-28T13:37:50.684Z,13.57
2023-10-28T13:40:17.176Z,16.05
2023-10-28T13:42:43.512Z,16.58
2023-10-28T13:45:10.062Z,20.42
2023-10-28T13:47:37.008Z,19.42
2023-10-28T13:50:05.886Z,19.85
2023-10-28T13:52:33.476Z,17.35
2023-10-28T13:54:59.822Z,18.05
2023-10-28T13:57:26.153Z,20.60
2023-10-28T13:59:54.262Z,29.10
2023-10-28T14:02:20.918Z,16.77
2023-10-28T14:04:47.300Z,14.73
2023-10-28T14:07:13.617Z,18.20
2023-10-28T14:09:39.944Z,13.60
2023-10-28T14:12:06.393Z,16.75
2023-10-28T14:14:32.752Z,16.45
2023-10-28T14:16:59.084Z,10.80
2023-10-28T14:19:25.461Z,18.27
2023-10-28T14:21:51.759Z,17.33
2023-10-28T14:24:20.706Z,15.25
2023-10-28T14:26:47.342Z,14.27
2023-10-28T14:29:13.727Z,15.98
2023-10-28T14:31:40.124Z,24.90
2023-10-28T14:34:06.438Z,35.58
2023-10-28T14:36:32.850Z,89.38
2023-10-28T14:38:59.132Z,121.25
2023-10-28T14:41:25.536Z,142.38
2023-10-28T14:43:52.008Z,249.77
2023-10-28T14:46:18.443Z,253.95
2023-10-28T14:48:44.733Z,270.58
2023-10-28T14:51:12.048Z,377.88
2023-10-28T14:53:38.372Z,362.75
2023-10-28T14:56:13.529Z,372.73
2023-10-28T14:58:40.132Z,296.05
2023-10-28T15:01:10.392Z,86.43
2023-10-28T15:03:38.163Z,23.27
2023-10-28T15:06:05.684Z,22.58
2023-10-28T15:08:32.384Z,11.68
2023-10-28T15:11:07.548Z,15.02
2023-10-28T15:13:34.453Z,18.48
2023-10-28T15:16:01.213Z,20.40
2023-10-28T15:18:28.533Z,29.98
2023-10-28T15:20:55.662Z,24.30
2023-10-28T15:23:23.553Z,22.92
2023-10-28T15:25:50.132Z,19.63
2023-10-28T15:28:16.457Z,24.10
2023-10-28T15:30:43.601Z,20.08
2023-10-28T15:33:09.974Z,20.05
2023-10-28T15:35:37.306Z,19.67
2023-10-28T15:38:03.713Z,20.33
2023-10-28T15:40:29.978Z,16.13
2023-10-28T15:42:57.004Z,21.77
2023-10-28T15:45:24.833Z,15.02
2023-10-28T15:47:52.511Z,13.13
2023-10-28T15:50:18.960Z,20.20
2023-10-28T15:52:48.154Z,18.33
2023-10-28T15:55:14.520Z,18.45
2023-10-28T15:57:41.001Z,26.33
2023-10-28T16:00:09.140Z,15.95
2023-10-28T16:02:38.808Z,20.10
2023-10-28T16:05:05.564Z,18.45
2023-10-28T16:07:32.067Z,17.02
2023-10-28T16:09:59.035Z,19.13
2023-10-28T16:12:25.650Z,23.15
2023-10-28T16:14:52.076Z,17.67
2023-10-28T16:17:18.330Z,20.27
2023-10-28T16:19:47.445Z,25.60
2023-10-28T16:22:15.162Z,19.98
2023-10-28T16:24:41.491Z,24.60
2023-10-28T16:27:07.875Z,22.30
2023-10-28T16:29:34.361Z,19.95
2023-10-28T16:32:00.745Z,16.05
2023-10-28T16:34:27.086Z,19.55
2023-10-28T16:36:54.536Z,23.17
2023-10-28T16:39:20.792Z,16.70
2023-10-28T16:41:47.168Z,25.08
2023-10-28T16:44:13.468Z,17.15
2023-10-28T16:46:41.281Z,20.73
2023-10-28T16:49:11.130Z,17.08
2023-10-28T16:51:39.602Z,19.35
2023-10-28T16:54:09.227Z,15.48
2023-10-28T16:56:35.851Z,21.23
2023-10-28T16:59:02.891Z,16.75
2023-10-28T17:01:30.024Z,17.58
2023-10-28T17:03:58.028Z,17.40
2023-10-28T17:06:26.240Z,9.57
2023-10-28T17:08:55.474Z,18.60
2023-10-28T17:11:25.486Z,12.25
2023-10-28T17:13:53.972Z,19.50
2023-10-28T17:16:21.161Z,17.77
2023-10-28T17:18:47.704Z,17.33
2023-10-28T17:21:14.163Z,23.90
2023-10-28T17:23:40.926Z,20.17
2023-10-28T17:26:07.473Z,15.82
2023-10-28T17:28:34.152Z,16.35
2023-10-28T17:31:02.043Z,20.85
2023-10-28T17:33:28.465Z,19.08
2023-10-28T17:35:55.453Z,21.50
2023-10-28T17:38:23.116Z,17.00
2023-10-28T17:40:50.071Z,29.20
2023-10-28T17:43:16.375Z,18.63
2023-10-28T17:45:42.707Z,30.10
2023-10-28T17:48:09.135Z,20.17
2023-10-28T17:50:36.190Z,20.33
2023-10-28T17:53:02.976Z,12.50
2023-10-28T17:55:29.724Z,19.75
2023-10-28T17:57:56.055Z,21.08
2023-10-28T18:00:22.650Z,20.80
2023-10-28T18:02:49.336Z,23.92
2023-10-28T18:05:15.766Z,30.83
2023-10-28T18:07:42.568Z,28.92
2023-10-28T18:10:09.839Z,25.33
2023-10-28T18:12:36.133Z,21.65
2023-10-28T18:15:02.447Z,13.95
2023-10-28T18:17:29.191Z,10.75
2023-10-28T18:19:56.011Z,15.98
2023-10-28T18:22:22.273Z,12.63
2023-10-28T18:24:48.555Z,11.02
2023-10-28T18:27:14.875Z,7.57
2023-10-28T18:29:42.814Z,8.38
2023-10-28T18:32:13.371Z,16.42
2023-10-28T18:37:08.148Z,11.23
2023-10-28T18:39:34.590Z,16.02
2023-10-28T18:42:00.935Z,17.75
2023-10-28T18:44:27.376Z,15.50
2023-10-28T18:46:53.679Z,8.57
2023-10-28T18:49:20.120Z,12.05
2023-10-28T18:51:46.418Z,18.50
2023-10-28T18:54:12.939Z,17.52
2023-10-28T18:56:40.444Z,12.23
2023-10-28T18:59:06.792Z,10.57
2023-10-28T19:01:33.141Z,12.88
2023-10-28T19:03:59.795Z,20.17
2023-10-28T19:06:26.329Z,15.50
2023-10-28T19:08:53.258Z,9.57
2023-10-28T19:11:19.622Z,17.95
2023-10-28T19:13:46.636Z,8.23
2023-10-28T19:16:12.948Z,14.35
2023-10-28T19:18:40.533Z,8.90
2023-10-28T19:21:06.910Z,7.88
2023-10-28T19:23:33.339Z,11.95
2023-10-28T19:25:59.694Z,8.80
2023-10-28T19:28:26.676Z,7.63
2023-10-28T19:30:53.123Z,11.55
2023-10-28T19:33:19.737Z,10.98
2023-10-28T19:35:46.199Z,9.65
2023-10-28T19:38:12.532Z,9.63
2023-10-28T19:40:39.296Z,6.95
2023-10-28T19:43:05.663Z,8.43
2023-10-28T19:45:32.044Z,5.72
2023-10-28T19:47:58.497Z,5.82
2023-10-28T19:50:25.979Z,7.50
2023-10-28T19:52:52.470Z,7.20
2023-10-28T19:55:18.866Z,7.38
2023-10-28T19:57:45.872Z,10.68
2023-10-28T20:00:13.317Z,4.97
2023-10-28T20:02:44.174Z,6.97
2023-10-28T20:05:12.618Z,2.60
2023-10-28T20:07:39.278Z,7.03
2023-10-28T20:10:08.362Z,9.32
2023-10-28T20:12:35.496Z,7.43
2023-10-28T20:15:02.265Z,4.30
2023-10-28T20:17:28.802Z,8.48
2023-10-28T20:19:55.216Z,10.77
2023-10-28T20:22:21.604Z,4.78
2023-10-28T20:24:47.938Z,4.13
2023-10-28T20:27:14.271Z,4.75
2023-10-28T20:29:40.740Z,4.60
2023-10-28T20:32:09.921Z,4.38
2023-10-28T20:34:36.482Z,6.72
2023-10-28T20:37:02.892Z,4.40
2023-10-28T20:39:29.398Z,5.07
2023-10-28T20:41:56.611Z,6.57
2023-10-28T20:44:23.075Z,6.72
2023-10-28T20:46:49.843Z,8.75
2023-10-28T20:49:16.188Z,5.05
2023-10-28T20:51:43.254Z,5.72
2023-10-28T20:54:12.347Z,7.13
2023-10-28T20:56:38.928Z,7.13
2023-10-28T20:59:05.276Z,4.57
2023-10-28T21:01:31.807Z,6.95
2023-10-28T21:03:58.179Z,4.00
2023-10-28T21:06:24.653Z,8.90
2023-10-28T21:08:51.123Z,5.90
2023-10-28T21:11:17.421Z,4.90
2023-10-28T21:13:43.725Z,5.68
2023-10-28T21:16:10.381Z,5.72
2023-10-28T21:18:36.836Z,7.78
2023-10-28T21:21:06.494Z,4.85
2023-10-28T21:23:33.047Z,2.03
2023-10-28T21:25:59.491Z,3.70
2023-10-28T21:28:26.466Z,3.35
2023-10-28T21:30:53.582Z,3.72
2023-10-28T21:33:20.584Z,5.70
2023-10-28T21:35:47.534Z,2.60
2023-10-28T21:38:14.084Z,2.35
2023-10-28T21:40:40.374Z,5.95
2023-10-28T21:43:06.633Z,3.13
2023-10-28T21:45:32.975Z,3.67
2023-10-28T21:47:59.584Z,5.72
2023-10-28T21:50:26.037Z,12.55
2023-10-28T21:52:52.401Z,3.95
2023-10-28T21:55:18.836Z,5.90
2023-10-28T21:57:45.233Z,4.22
2023-10-28T22:00:27.156Z,1.95
2023-10-28T22:02:53.630Z,5.60
2023-10-28T22:05:20.747Z,3.78
2023-10-28T22:07:48.977Z,2.35
2023-10-28T22:10:19.224Z,5.72
2023-10-28T22:12:47.578Z,7.10
2023-10-28T22:15:15.657Z,2.13
2023-10-28T22:17:45.673Z,2.85
2023-10-28T22:20:12.735Z,2.70
2023-10-28T22:22:39.653Z,1.98
2023-10-28T22:25:06.834Z,3.42
2023-10-28T22:27:33.884Z,3.58
2023-10-28T22:30:00.303Z,6.53
2023-10-28T22:32:26.900Z,2.28
2023-10-28T22:34:53.296Z,2.72
2023-10-28T22:37:19.548Z,3.42
2023-10-28T22:39:46.788Z,3.97
2023-10-28T22:42:13.110Z,3.38
2023-10-28T22:44:39.549Z,1.75
2023-10-28T22:47:06.259Z,3.33
2023-10-28T22:49:32.534Z,6.20
2023-10-28T22:51:58.892Z,1.40
2023-10-28T22:54:25.620Z,8.85
2023-10-28T22:56:52.078Z,3.20
2023-10-28T22:59:18.789Z,2.13
2023-10-28T23:01:45.226Z,2.35
2023-10-28T23:04:14.664Z,3.35
2023-10-28T23:06:41.338Z,2.67
2023-10-28T23:09:07.653Z,3.53
2023-10-28T23:11:37.595Z,2.63
2023-10-28T23:14:04.154Z,4.45
2023-10-28T23:16:33.414Z,1.25
2023-10-28T23:18:59.775Z,4.40
2023-10-28T23:21:27.087Z,1.55
2023-10-28T23:23:54.566Z,5.63
2023-10-28T23:26:23.369Z,6.38
2023-10-28T23:28:50.062Z,2.25
2023-10-28T23:31:16.604Z,2.67
2023-10-28T23:33:43.057Z,2.65
2023-10-28T23:36:09.325Z,4.07
2023-10-28T23:38:35.753Z,2.38
2023-10-28T23:41:02.110Z,4.93
2023-10-28T23:43:29.191Z,2.78
2023-10-28T23:45:55.690Z,2.05
2023-10-28T23:48:23.075Z,4.15
2023-10-28T23:50:49.508Z,2.03
2023-10-28T23:53:15.863Z,2.30
2023-10-28T23:55:42.394Z,2.38
2023-10-28T23:58:08.846Z,2.67
